Time;durP1;ratioP1;P1;durP2;ratioP2;P2;SDS_P1;SDS_P2;PMS_P1;PMS_P2;Temp;Humidity;BMP_temperature;BMP_pressure;BME280_temperature;BME280_humidity;BME280_pressure;Samples;Min_cycle;Max_cycle;Signal;HPM_P1;HPM_P2
2023/08/27 00:00:52;;;;;;;12.25;10.95;;;;;;;;;;5074670;28;20103;-71
2023/08/27 00:03:17;;;;;;;14.52;11.20;;;;;;;;;;5093063;28;20127;-71
2023/08/27 00:05:43;;;;;;;13.07;10.93;;;;;;;;;;5092665;28;20027;-73
2023/08/27 00:08:10;;;;;;;17.77;11.68;;;;;;;;;;5092691;28;20339;-72
2023/08/27 00:10:35;;;;;;;45.90;28.63;;;;;;;;;;5092881;28;20024;-71
2023/08/27 00:13:00;;;;;;;26.55;17.90;;;;;;;;;;5092132;28;20317;-72
2023/08/27 00:15:26;;;;;;;21.67;16.23;;;;;;;;;;5076019;28;20043;-70
2023/08/27 00:17:51;;;;;;;24.63;17.52;;;;;;;;;;5092518;28;20024;-72
2023/08/27 00:20:17;;;;;;;16.30;13.07;;;;;;;;;;5092619;28;20032;-73
2023/08/27 00:22:42;;;;;;;12.85;11.00;;;;;;;;;;5090482;28;20031;-73
2023/08/27 00:25:08;;;;;;;12.90;11.45;;;;;;;;;;5071456;28;20127;-72
2023/08/27 00:27:33;;;;;;;13.77;11.35;;;;;;;;;;5087016;28;20027;-73
2023/08/27 00:29:59;;;;;;;13.32;12.02;;;;;;;;;;5092699;28;20023;-72
2023/08/27 00:32:27;;;;;;;13.30;10.85;;;;;;;;;;5092129;28;20439;-73
2023/08/27 00:34:53;;;;;;;13.70;11.10;;;;;;;;;;5092715;28;20077;-73
2023/08/27 00:37:18;;;;;;;12.57;11.18;;;;;;;;;;5092932;28;20105;-73
2023/08/27 00:39:43;;;;;;;13.18;11.80;;;;;;;;;;5092585;28;20032;-72
2023/08/27 00:42:09;;;;;;;11.95;10.85;;;;;;;;;;5092127;28;20024;-69
2023/08/27 00:44:34;;;;;;;13.20;10.40;;;;;;;;;;5074473;28;20032;-72
2023/08/27 00:47:00;;;;;;;11.77;10.57;;;;;;;;;;5092342;28;20121;-72
2023/08/27 00:49:25;;;;;;;12.02;10.82;;;;;;;;;;5091942;28;20030;-69
2023/08/27 00:51:52;;;;;;;16.17;10.13;;;;;;;;;;5092165;28;20102;-70
2023/08/27 00:54:17;;;;;;;12.48;11.30;;;;;;;;;;5092181;28;20115;-70
2023/08/27 00:56:44;;;;;;;11.23;10.15;;;;;;;;;;5091864;28;20402;-69
2023/08/27 00:59:10;;;;;;;12.05;10.52;;;;;;;;;;5074422;28;20203;-69
2023/08/27 01:01:37;;;;;;;11.80;10.60;;;;;;;;;;5092341;28;20316;-70
2023/08/27 01:04:02;;;;;;;10.77;9.88;;;;;;;;;;5091796;28;20028;-70
2023/08/27 01:06:28;;;;;;;12.30;10.98;;;;;;;;;;5092549;28;20111;-69
2023/08/27 01:09:16;;;;;;;11.40;10.40;;;;;;;;;;5091775;28;20106;-73
2023/08/27 01:11:47;;;;;;;12.77;10.90;;;;;;;;;;5092377;28;20044;-72
2023/08/27 01:14:14;;;;;;;14.02;10.38;;;;;;;;;;5083401;28;20048;-73
2023/08/27 01:16:40;;;;;;;11.43;10.18;;;;;;;;;;5091619;28;20350;-70
2023/08/27 01:19:07;;;;;;;15.43;11.88;;;;;;;;;;5092199;28;20465;-71
2023/08/27 01:21:32;;;;;;;11.80;10.55;;;;;;;;;;5092122;28;20027;-71
2023/08/27 01:23:58;;;;;;;11.80;10.18;;;;;;;;;;5091793;28;20109;-71
2023/08/27 01:26:26;;;;;;;13.02;10.50;;;;;;;;;;5092107;28;20093;-71
2023/08/27 01:28:58;;;;;;;12.40;10.00;;;;;;;;;;5092409;28;20044;-71
2023/08/27 01:31:27;;;;;;;11.43;10.07;;;;;;;;;;5091921;28;20028;-72
2023/08/27 01:33:56;;;;;;;11.52;10.20;;;;;;;;;;5092027;28;20401;-71
2023/08/27 01:36:21;;;;;;;11.38;10.25;;;;;;;;;;5086908;28;20039;-72
2023/08/27 01:38:46;;;;;;;12.07;10.80;;;;;;;;;;5087927;28;20032;-71
2023/08/27 01:41:12;;;;;;;11.32;10.25;;;;;;;;;;5091987;28;20035;-71
2023/08/27 01:43:37;;;;;;;11.95;10.95;;;;;;;;;;5093120;28;20020;-71
2023/08/27 01:46:03;;;;;;;12.25;10.90;;;;;;;;;;5095177;28;20091;-73
2023/08/27 01:48:28;;;;;;;17.52;11.00;;;;;;;;;;5091097;28;20024;-71
2023/08/27 01:50:54;;;;;;;12.23;10.13;;;;;;;;;;5095200;28;20065;-71
2023/08/27 01:53:19;;;;;;;11.27;10.23;;;;;;;;;;5095212;28;20308;-71
2023/08/27 01:55:44;;;;;;;12.00;10.80;;;;;;;;;;5077386;28;20028;-70
2023/08/27 01:58:10;;;;;;;11.93;10.80;;;;;;;;;;5094890;28;20052;-70
2023/08/27 02:00:36;;;;;;;12.15;10.73;;;;;;;;;;5095304;28;20427;-70
2023/08/27 02:03:01;;;;;;;11.48;10.35;;;;;;;;;;5094975;28;20039;-70
2023/08/27 02:05:27;;;;;;;11.02;9.93;;;;;;;;;;5094682;28;20431;-70
2023/08/27 02:07:52;;;;;;;12.77;10.95;;;;;;;;;;5095194;28;20399;-70
2023/08/27 02:10:18;;;;;;;11.57;10.52;;;;;;;;;;5094889;28;20032;-70
2023/08/27 02:12:43;;;;;;;14.25;10.63;;;;;;;;;;5076979;28;20115;-70
2023/08/27 02:15:09;;;;;;;12.05;10.93;;;;;;;;;;5095018;28;20024;-70
2023/08/27 02:17:34;;;;;;;13.30;11.43;;;;;;;;;;5094682;28;20107;-72
2023/08/27 02:20:00;;;;;;;13.13;10.90;;;;;;;;;;5094820;28;20093;-72
2023/08/27 02:22:25;;;;;;;14.05;11.48;;;;;;;;;;5094905;28;20024;-72
2023/08/27 02:24:50;;;;;;;13.57;11.18;;;;;;;;;;5094483;28;20028;-72
2023/08/27 02:27:16;;;;;;;15.85;11.20;;;;;;;;;;5088982;28;20028;-70
2023/08/27 02:29:41;;;;;;;11.80;10.63;;;;;;;;;;5094802;28;20397;-72
2023/08/27 02:32:06;;;;;;;12.00;10.90;;;;;;;;;;5076761;28;20115;-70
2023/08/27 02:34:32;;;;;;;11.95;10.65;;;;;;;;;;5094276;28;20058;-72
2023/08/27 02:36:57;;;;;;;11.85;10.70;;;;;;;;;;5094655;28;20476;-71
2023/08/27 02:39:23;;;;;;;12.55;11.25;;;;;;;;;;5094605;28;20031;-71
2023/08/27 02:41:48;;;;;;;12.02;10.85;;;;;;;;;;5094422;28;20351;-70
2023/08/27 02:44:14;;;;;;;11.82;10.63;;;;;;;;;;5076341;28;20047;-70
2023/08/27 02:46:39;;;;;;;12.65;11.43;;;;;;;;;;5060154;28;20146;-69
2023/08/27 02:49:06;;;;;;;12.95;11.65;;;;;;;;;;5053395;28;20079;-70
2023/08/27 02:51:31;;;;;;;12.60;11.30;;;;;;;;;;5053718;28;20056;-70
2023/08/27 02:53:57;;;;;;;11.95;10.80;;;;;;;;;;5053897;28;20383;-70
2023/08/27 02:56:22;;;;;;;12.43;11.32;;;;;;;;;;5036090;28;20061;-71
2023/08/27 02:58:49;;;;;;;12.45;11.25;;;;;;;;;;5036266;28;20099;-70
2023/08/27 03:01:20;;;;;;;13.43;12.02;;;;;;;;;;5035908;28;20025;-71
2023/08/27 03:03:45;;;;;;;13.65;12.20;;;;;;;;;;5053715;28;20320;-70
2023/08/27 03:06:11;;;;;;;12.63;11.38;;;;;;;;;;5036060;28;20025;-71
2023/08/27 03:08:36;;;;;;;12.80;11.60;;;;;;;;;;5053209;28;20108;-72
2023/08/27 03:11:01;;;;;;;12.50;11.13;;;;;;;;;;5053361;28;20035;-71
2023/08/27 03:13:27;;;;;;;11.32;10.18;;;;;;;;;;5053587;28;20059;-72
2023/08/27 03:15:52;;;;;;;13.55;11.32;;;;;;;;;;5053343;28;20032;-73
2023/08/27 03:18:17;;;;;;;12.18;11.07;;;;;;;;;;5049852;28;20033;-71
2023/08/27 03:20:43;;;;;;;12.30;11.10;;;;;;;;;;5053202;28;20028;-70
2023/08/27 03:23:08;;;;;;;13.13;11.85;;;;;;;;;;5053564;28;20408;-70
2023/08/27 03:25:33;;;;;;;13.23;11.93;;;;;;;;;;5053337;28;20124;-71
2023/08/27 03:27:59;;;;;;;16.05;12.25;;;;;;;;;;5053119;28;20043;-70
2023/08/27 03:30:24;;;;;;;12.55;11.27;;;;;;;;;;5053081;28;20036;-72
2023/08/27 03:32:49;;;;;;;13.07;11.25;;;;;;;;;;5052883;28;20017;-72
2023/08/27 03:35:16;;;;;;;14.88;11.90;;;;;;;;;;5053265;28;20123;-72
2023/08/27 03:37:42;;;;;;;12.75;11.50;;;;;;;;;;5052851;28;20013;-72
2023/08/27 03:40:08;;;;;;;13.90;11.32;;;;;;;;;;5052837;28;20442;-72
2023/08/27 03:42:33;;;;;;;13.77;12.35;;;;;;;;;;5053129;28;20455;-72
2023/08/27 03:44:58;;;;;;;12.77;11.68;;;;;;;;;;5052535;28;20032;-72
2023/08/27 03:47:24;;;;;;;13.32;12.02;;;;;;;;;;5067313;28;20055;-72
2023/08/27 03:49:49;;;;;;;13.75;11.00;;;;;;;;;;5072977;28;20351;-73
2023/08/27 03:52:14;;;;;;;12.93;11.55;;;;;;;;;;5072485;28;20039;-71
2023/08/27 03:54:40;;;;;;;12.85;10.73;;;;;;;;;;5072597;28;20024;-72
2023/08/27 03:57:05;;;;;;;12.88;11.48;;;;;;;;;;5072629;28;20071;-70
2023/08/27 03:59:30;;;;;;;13.00;11.80;;;;;;;;;;5066920;28;20032;-70
2023/08/27 04:01:57;;;;;;;14.15;11.88;;;;;;;;;;5072096;28;20028;-72
2023/08/27 04:04:22;;;;;;;14.18;11.90;;;;;;;;;;5048045;28;20041;-71
2023/08/27 04:06:48;;;;;;;14.88;12.25;;;;;;;;;;5033782;28;20017;-72
2023/08/27 04:09:13;;;;;;;12.43;11.23;;;;;;;;;;5028840;28;20100;-70
2023/08/27 04:11:39;;;;;;;13.32;11.93;;;;;;;;;;5033235;28;20060;-74
2023/08/27 04:14:04;;;;;;;15.50;11.68;;;;;;;;;;5035797;28;20035;-73
2023/08/27 04:16:30;;;;;;;14.85;12.70;;;;;;;;;;5055212;28;20522;-72
2023/08/27 04:18:55;;;;;;;13.85;12.05;;;;;;;;;;5053161;28;20043;-73
2023/08/27 04:21:21;;;;;;;13.25;11.57;;;;;;;;;;5053380;28;20412;-72
2023/08/27 04:23:46;;;;;;;13.68;12.38;;;;;;;;;;5044014;28;20031;-72
2023/08/27 04:26:12;;;;;;;13.15;11.68;;;;;;;;;;5042032;28;20029;-71
2023/08/27 04:28:38;;;;;;;14.52;12.20;;;;;;;;;;5042808;28;20032;-72
2023/08/27 04:31:03;;;;;;;13.27;11.85;;;;;;;;;;5042438;28;20037;-76
2023/08/27 04:33:29;;;;;;;13.23;11.98;;;;;;;;;;5025334;28;20414;-73
2023/08/27 04:35:54;;;;;;;13.68;12.48;;;;;;;;;;5041844;28;20077;-74
2023/08/27 04:38:20;;;;;;;14.68;13.13;;;;;;;;;;5042424;28;20439;-72
2023/08/27 04:40:50;;;;;;;15.05;13.45;;;;;;;;;;5041812;28;20413;-74
2023/08/27 04:43:15;;;;;;;15.30;13.68;;;;;;;;;;5042261;28;20032;-76
2023/08/27 04:45:40;;;;;;;15.93;12.65;;;;;;;;;;5042034;28;20040;-73
2023/08/27 04:48:06;;;;;;;15.60;13.13;;;;;;;;;;5041467;28;20144;-74
2023/08/27 04:50:31;;;;;;;15.38;13.15;;;;;;;;;;5040281;28;20044;-70
2023/08/27 04:52:56;;;;;;;13.32;11.98;;;;;;;;;;5022665;28;20099;-75
2023/08/27 04:55:22;;;;;;;13.57;12.18;;;;;;;;;;5042016;28;20028;-72
2023/08/27 04:57:47;;;;;;;14.38;12.98;;;;;;;;;;5053408;28;20050;-73
2023/08/27 05:00:31;;;;;;;14.13;12.63;;;;;;;;;;5051809;28;20025;-71
2023/08/27 05:02:56;;;;;;;13.70;12.30;;;;;;;;;;5034435;28;20017;-71
2023/08/27 05:05:22;;;;;;;13.73;12.52;;;;;;;;;;5052696;28;20090;-73
2023/08/27 05:07:47;;;;;;;14.30;12.90;;;;;;;;;;5054864;28;20047;-73
2023/08/27 05:10:12;;;;;;;13.82;12.48;;;;;;;;;;5045583;28;21173;-74
2023/08/27 05:12:38;;;;;;;14.25;12.82;;;;;;;;;;5041696;28;20032;-74
2023/08/27 05:15:03;;;;;;;13.77;11.60;;;;;;;;;;5036786;28;20467;-73
2023/08/27 05:17:29;;;;;;;14.55;13.07;;;;;;;;;;5042958;28;20017;-73
2023/08/27 05:19:54;;;;;;;14.52;13.20;;;;;;;;;;5055095;28;20067;-71
2023/08/27 05:22:19;;;;;;;14.45;12.30;;;;;;;;;;5053929;28;20033;-72
2023/08/27 05:24:45;;;;;;;14.50;12.57;;;;;;;;;;5047937;28;20165;-73
2023/08/27 05:27:10;;;;;;;14.05;12.60;;;;;;;;;;5056471;28;20021;-74
2023/08/27 05:29:35;;;;;;;13.52;12.20;;;;;;;;;;5057777;28;20031;-73
2023/08/27 05:32:01;;;;;;;15.52;12.82;;;;;;;;;;5052727;28;20025;-71
2023/08/27 05:34:26;;;;;;;15.45;13.98;;;;;;;;;;5045679;28;20082;-75
2023/08/27 05:36:52;;;;;;;18.75;17.05;;;;;;;;;;5054190;28;20081;-70
2023/08/27 05:39:17;;;;;;;16.85;15.18;;;;;;;;;;5057348;28;20039;-71
2023/08/27 05:41:43;;;;;;;19.35;17.65;;;;;;;;;;5054598;28;20068;-74
2023/08/27 05:44:08;;;;;;;13.95;12.75;;;;;;;;;;5055237;28;20056;-73
2023/08/27 05:46:34;;;;;;;16.58;12.23;;;;;;;;;;5047332;28;20047;-72
2023/08/27 05:49:00;;;;;;;14.60;12.43;;;;;;;;;;5055020;28;20045;-72
2023/08/27 05:51:25;;;;;;;13.07;11.73;;;;;;;;;;5058056;28;20064;-73
2023/08/27 05:53:51;;;;;;;14.98;12.00;;;;;;;;;;5057136;28;20025;-76
2023/08/27 05:56:16;;;;;;;13.07;11.63;;;;;;;;;;5057273;28;20060;-73
2023/08/27 05:58:41;;;;;;;12.63;11.32;;;;;;;;;;5056588;28;20041;-71
2023/08/27 06:01:07;;;;;;;12.63;11.50;;;;;;;;;;5040332;28;20045;-72
2023/08/27 06:03:32;;;;;;;14.40;13.00;;;;;;;;;;5056226;28;20025;-71
2023/08/27 06:05:57;;;;;;;15.20;13.23;;;;;;;;;;5056124;28;20039;-73
2023/08/27 06:08:23;;;;;;;14.52;13.15;;;;;;;;;;5034388;28;20124;-73
2023/08/27 06:10:48;;;;;;;14.45;13.15;;;;;;;;;;5049352;28;20063;-75
2023/08/27 06:13:14;;;;;;;13.23;11.90;;;;;;;;;;5049393;28;20100;-73
2023/08/27 06:15:39;;;;;;;14.30;13.02;;;;;;;;;;5053576;28;20430;-73
2023/08/27 06:18:05;;;;;;;15.55;13.32;;;;;;;;;;5049989;28;20122;-74
2023/08/27 06:20:31;;;;;;;13.07;11.63;;;;;;;;;;5048984;28;20024;-72
2023/08/27 06:22:57;;;;;;;12.60;11.32;;;;;;;;;;5041521;28;20031;-71
2023/08/27 06:25:23;;;;;;;12.77;11.48;;;;;;;;;;5042260;28;20132;-71
2023/08/27 06:27:48;;;;;;;11.68;10.23;;;;;;;;;;5040992;28;20471;-71
2023/08/27 06:30:13;;;;;;;12.27;10.98;;;;;;;;;;5032852;28;20410;-72
2023/08/27 06:32:39;;;;;;;12.27;10.05;;;;;;;;;;5049825;28;20033;-72
2023/08/27 06:35:04;;;;;;;13.73;11.60;;;;;;;;;;5047170;28;20031;-74
2023/08/27 06:37:30;;;;;;;11.52;10.00;;;;;;;;;;5044706;28;20044;-72
2023/08/27 06:39:55;;;;;;;14.98;12.13;;;;;;;;;;5053823;28;20107;-72
2023/08/27 06:42:20;;;;;;;13.05;11.70;;;;;;;;;;5042498;28;20036;-75
2023/08/27 06:44:46;;;;;;;11.48;10.43;;;;;;;;;;5052617;28;20063;-73
2023/08/27 06:47:11;;;;;;;12.32;10.63;;;;;;;;;;5048683;28;20086;-73
2023/08/27 06:49:36;;;;;;;12.00;10.77;;;;;;;;;;5050370;28;20111;-73
2023/08/27 06:52:02;;;;;;;12.80;10.48;;;;;;;;;;5053077;28;20455;-74
2023/08/27 06:54:27;;;;;;;14.95;13.45;;;;;;;;;;5051813;28;20102;-72
2023/08/27 06:56:53;;;;;;;14.45;12.90;;;;;;;;;;5044925;28;20375;-73
2023/08/27 06:59:18;;;;;;;13.32;11.93;;;;;;;;;;5057244;28;20037;-73
2023/08/27 07:01:43;;;;;;;12.27;10.98;;;;;;;;;;5054267;28;20054;-74
2023/08/27 07:04:09;;;;;;;11.27;10.20;;;;;;;;;;5034233;28;20027;-75
2023/08/27 07:06:34;;;;;;;11.68;10.52;;;;;;;;;;5043951;28;20025;-74
2023/08/27 07:09:00;;;;;;;13.98;9.60;;;;;;;;;;5055255;28;20028;-74
2023/08/27 07:11:25;;;;;;;12.35;11.05;;;;;;;;;;5054735;28;20102;-72
2023/08/27 07:13:50;;;;;;;11.35;10.20;;;;;;;;;;5054360;28;20482;-74
2023/08/27 07:16:16;;;;;;;11.82;9.45;;;;;;;;;;5054140;28;20036;-76
2023/08/27 07:18:41;;;;;;;13.55;9.60;;;;;;;;;;5054221;28;20032;-74
2023/08/27 07:21:07;;;;;;;10.65;9.43;;;;;;;;;;5032613;28;20112;-73
2023/08/27 07:23:32;;;;;;;20.10;10.05;;;;;;;;;;5043130;28;20068;-73
2023/08/27 07:25:58;;;;;;;17.10;10.90;;;;;;;;;;5053488;28;20043;-75
2023/08/27 07:28:23;;;;;;;10.75;9.73;;;;;;;;;;5030595;28;20028;-73
2023/08/27 07:30:51;;;;;;;11.75;9.57;;;;;;;;;;5043924;28;20036;-72
2023/08/27 07:33:17;;;;;;;13.70;9.60;;;;;;;;;;5054006;28;20031;-74
2023/08/27 07:35:43;;;;;;;13.45;9.50;;;;;;;;;;5035098;28;20029;-74
2023/08/27 07:38:08;;;;;;;10.77;9.70;;;;;;;;;;5038445;28;20029;-73
2023/08/27 07:40:34;;;;;;;12.57;10.35;;;;;;;;;;5032021;28;20356;-74
2023/08/27 07:43:00;;;;;;;10.95;9.95;;;;;;;;;;5034011;28;20033;-75
2023/08/27 07:45:25;;;;;;;13.23;8.88;;;;;;;;;;5037279;28;20037;-74
2023/08/27 07:47:50;;;;;;;10.13;9.13;;;;;;;;;;5052553;28;20127;-76
2023/08/27 07:50:16;;;;;;;9.57;8.60;;;;;;;;;;5044995;28;20020;-76
2023/08/27 07:52:41;;;;;;;9.30;8.43;;;;;;;;;;5043374;28;20151;-73
2023/08/27 07:55:07;;;;;;;9.90;8.82;;;;;;;;;;5041381;28;20360;-74
2023/08/27 07:57:33;;;;;;;9.07;8.18;;;;;;;;;;5054997;28;20032;-75
2023/08/27 07:59:58;;;;;;;10.27;8.25;;;;;;;;;;5048006;28;20028;-74
2023/08/27 08:02:23;;;;;;;11.52;8.63;;;;;;;;;;5036302;28;20083;-74
2023/08/27 08:04:49;;;;;;;8.57;7.65;;;;;;;;;;5054040;28;20076;-74
2023/08/27 08:07:14;;;;;;;9.90;8.23;;;;;;;;;;5040555;28;20028;-75
2023/08/27 08:09:39;;;;;;;12.45;7.78;;;;;;;;;;5033984;28;20158;-75
2023/08/27 08:12:05;;;;;;;11.65;8.38;;;;;;;;;;5038405;28;20025;-75
2023/08/27 08:14:31;;;;;;;11.10;8.52;;;;;;;;;;5026483;28;20029;-74
2023/08/27 08:16:57;;;;;;;8.48;7.70;;;;;;;;;;5041826;28;20060;-75
2023/08/27 08:19:22;;;;;;;9.43;7.60;;;;;;;;;;5005542;28;20414;-73
2023/08/27 08:21:47;;;;;;;8.73;7.88;;;;;;;;;;5029203;28;20029;-75
2023/08/27 08:24:13;;;;;;;10.25;8.23;;;;;;;;;;5025086;28;20025;-73
2023/08/27 08:26:38;;;;;;;9.00;7.10;;;;;;;;;;5025807;28;20100;-74
2023/08/27 08:29:04;;;;;;;8.80;7.90;;;;;;;;;;5030476;28;20745;-72
2023/08/27 08:31:29;;;;;;;8.75;7.93;;;;;;;;;;5026645;28;20060;-76
2023/08/27 08:33:54;;;;;;;8.18;7.38;;;;;;;;;;5023559;28;20049;-76
2023/08/27 08:36:20;;;;;;;7.97;7.10;;;;;;;;;;5021805;28;20029;-76
2023/08/27 08:38:45;;;;;;;8.85;8.00;;;;;;;;;;5030040;28;20033;-76
2023/08/27 08:41:11;;;;;;;7.78;7.03;;;;;;;;;;5035856;28;20044;-77
2023/08/27 08:43:45;;;;;;;9.52;7.55;;;;;;;;;;5034964;28;20493;-76
2023/08/27 08:46:13;;;;;;;8.52;7.70;;;;;;;;;;5016959;28;20052;-75
2023/08/27 08:48:39;;;;;;;10.63;7.75;;;;;;;;;;5015493;28;20508;-74
2023/08/27 08:51:05;;;;;;;8.48;7.70;;;;;;;;;;5033277;28;20033;-75
2023/08/27 08:53:32;;;;;;;9.32;8.02;;;;;;;;;;5033270;28;20368;-74
2023/08/27 08:55:58;;;;;;;9.02;8.07;;;;;;;;;;5039641;28;20372;-75
2023/08/27 08:58:27;;;;;;;10.48;7.72;;;;;;;;;;5048193;28;20030;-76
2023/08/27 09:00:54;;;;;;;12.10;8.43;;;;;;;;;;5053359;28;20029;-77
2023/08/27 09:03:19;;;;;;;12.13;8.43;;;;;;;;;;5069122;28;20344;-77
2023/08/27 09:05:45;;;;;;;9.15;8.20;;;;;;;;;;5055976;28;20036;-76
2023/08/27 09:08:13;;;;;;;8.38;7.55;;;;;;;;;;5047767;28;20032;-75
2023/08/27 09:10:38;;;;;;;10.10;8.32;;;;;;;;;;5056094;28;20340;-76
2023/08/27 09:13:05;;;;;;;8.75;7.95;;;;;;;;;;5057005;28;20029;-76
2023/08/27 09:15:30;;;;;;;8.70;7.88;;;;;;;;;;5056543;28;20111;-75
2023/08/27 09:17:55;;;;;;;10.48;7.97;;;;;;;;;;5056187;28;20171;-75
2023/08/27 09:20:21;;;;;;;8.30;7.60;;;;;;;;;;5055217;28;20121;-75
2023/08/27 09:22:46;;;;;;;7.63;6.90;;;;;;;;;;5057287;28;20017;-73
2023/08/27 09:25:12;;;;;;;12.63;7.68;;;;;;;;;;5034531;28;20040;-77
2023/08/27 09:27:38;;;;;;;8.65;7.85;;;;;;;;;;5046312;28;20043;-74
2023/08/27 09:30:03;;;;;;;11.10;7.80;;;;;;;;;;5023883;28;20033;-76
2023/08/27 09:32:29;;;;;;;11.77;8.05;;;;;;;;;;5038554;28;20763;-74
2023/08/27 09:35:04;;;;;;;10.48;7.85;;;;;;;;;;5050694;28;20349;-71
2023/08/27 09:37:40;;;;;;;9.00;8.02;;;;;;;;;;5035107;28;20025;-75
2023/08/27 09:40:08;;;;;;;8.70;7.75;;;;;;;;;;5053233;28;20108;-74
2023/08/27 09:42:34;;;;;;;8.50;7.55;;;;;;;;;;5055373;28;20460;-74
2023/08/27 09:44:59;;;;;;;9.70;8.75;;;;;;;;;;5038990;28;20025;-75
2023/08/27 09:47:30;;;;;;;13.98;8.77;;;;;;;;;;5052242;28;20098;-76
2023/08/27 09:49:55;;;;;;;11.77;8.07;;;;;;;;;;5051116;28;20017;-77
2023/08/27 09:52:24;;;;;;;10.88;8.75;;;;;;;;;;5042201;28;20024;-73
2023/08/27 09:54:51;;;;;;;8.73;7.93;;;;;;;;;;5049458;28;20296;-75
2023/08/27 09:57:17;;;;;;;10.20;8.63;;;;;;;;;;5049030;28;20028;-73
2023/08/27 09:59:42;;;;;;;10.52;8.90;;;;;;;;;;5057829;28;20052;-76
2023/08/27 10:02:11;;;;;;;10.38;9.38;;;;;;;;;;5043836;28;20416;-76
2023/08/27 10:04:46;;;;;;;10.25;8.80;;;;;;;;;;5053551;28;20037;-75
2023/08/27 10:07:13;;;;;;;9.70;8.80;;;;;;;;;;5057386;28;20032;-73
2023/08/27 10:09:38;;;;;;;9.82;8.82;;;;;;;;;;5045187;28;20029;-74
2023/08/27 10:12:04;;;;;;;10.02;9.02;;;;;;;;;;5039453;28;20028;-76
2023/08/27 10:14:31;;;;;;;10.73;8.80;;;;;;;;;;5054840;28;20036;-74
2023/08/27 10:16:56;;;;;;;11.55;9.15;;;;;;;;;;5051050;28;20440;-73
2023/08/27 10:19:22;;;;;;;11.20;8.68;;;;;;;;;;5047820;28;20027;-73
2023/08/27 10:21:47;;;;;;;10.52;8.70;;;;;;;;;;5047013;28;20059;-71
2023/08/27 10:24:13;;;;;;;10.40;9.25;;;;;;;;;;5053174;28;20035;-72
2023/08/27 10:26:42;;;;;;;10.20;8.65;;;;;;;;;;5057671;28;21200;-74
2023/08/27 10:29:07;;;;;;;9.90;8.90;;;;;;;;;;5054635;28;20218;-72
2023/08/27 10:31:33;;;;;;;11.57;8.80;;;;;;;;;;5055238;28;20099;-74
2023/08/27 10:33:58;;;;;;;10.00;8.57;;;;;;;;;;5057937;28;20767;-72
2023/08/27 10:36:28;;;;;;;11.50;9.15;;;;;;;;;;5054467;28;20028;-74
2023/08/27 10:38:54;;;;;;;9.57;8.65;;;;;;;;;;5037562;28;20028;-74
2023/08/27 10:41:23;;;;;;;9.25;8.40;;;;;;;;;;5055525;28;20024;-73
2023/08/27 10:43:48;;;;;;;10.38;8.75;;;;;;;;;;5052413;28;20044;-73
2023/08/27 10:46:14;;;;;;;10.05;8.38;;;;;;;;;;5056670;28;20045;-73
2023/08/27 10:48:40;;;;;;;9.95;8.82;;;;;;;;;;5055356;28;20681;-74
2023/08/27 10:51:10;;;;;;;9.35;8.45;;;;;;;;;;5055196;28;20031;-73
2023/08/27 10:53:47;;;;;;;8.73;7.88;;;;;;;;;;5055466;28;20505;-76
2023/08/27 10:56:25;;;;;;;10.88;8.18;;;;;;;;;;5055498;28;20037;-74
2023/08/27 10:58:50;;;;;;;9.13;7.70;;;;;;;;;;5054495;28;20041;-72
2023/08/27 11:01:18;;;;;;;10.57;8.20;;;;;;;;;;5056595;28;20028;-75
2023/08/27 11:03:56;;;;;;;10.45;7.72;;;;;;;;;;5057131;28;20020;-74
2023/08/27 11:06:21;;;;;;;;;;;;;;;;;;5045785;28;20029;-77
2023/08/27 11:08:52;;;;;;;9.77;7.30;;;;;;;;;;5053596;28;19927;-73
2023/08/27 11:11:22;;;;;;;11.90;8.13;;;;;;;;;;5052003;28;20082;-77
2023/08/27 11:13:47;;;;;;;11.15;7.63;;;;;;;;;;5048124;28;20028;-76
2023/08/27 11:16:15;;;;;;;8.90;7.25;;;;;;;;;;5054034;28;20040;-73
2023/08/27 11:18:45;;;;;;;10.52;7.40;;;;;;;;;;5055876;28;20033;-74
2023/08/27 11:21:20;;;;;;;11.32;6.70;;;;;;;;;;5052220;28;20033;-74
2023/08/27 11:24:05;;;;;;;10.23;7.50;;;;;;;;;;5046204;28;20348;-76
2023/08/27 11:26:31;;;;;;;9.40;7.18;;;;;;;;;;5054114;28;20045;-75
2023/08/27 11:28:57;;;;;;;7.47;6.70;;;;;;;;;;5056983;28;20050;-73
2023/08/27 11:31:22;;;;;;;9.60;6.88;;;;;;;;;;5055423;28;20024;-74
2023/08/27 11:33:48;;;;;;;7.23;6.47;;;;;;;;;;5051871;28;20061;-75
2023/08/27 11:36:13;;;;;;;7.78;6.57;;;;;;;;;;5053144;28;20300;-75
2023/08/27 11:38:38;;;;;;;8.25;7.45;;;;;;;;;;5053790;28;20034;-73
2023/08/27 11:41:04;;;;;;;7.40;6.70;;;;;;;;;;5054518;28;20035;-74
2023/08/27 11:43:29;;;;;;;8.20;7.30;;;;;;;;;;5054372;28;20067;-73
2023/08/27 11:45:55;;;;;;;9.82;6.97;;;;;;;;;;5053092;28;20108;-74
2023/08/27 11:48:20;;;;;;;8.25;7.45;;;;;;;;;;5044752;28;20475;-75
2023/08/27 11:50:45;;;;;;;9.75;7.22;;;;;;;;;;5041852;28;20459;-72
2023/08/27 11:53:11;;;;;;;7.95;7.15;;;;;;;;;;5051762;28;22162;-75
2023/08/27 11:55:37;;;;;;;9.77;7.30;;;;;;;;;;5054637;28;20460;-75
2023/08/27 11:58:02;;;;;;;8.60;7.70;;;;;;;;;;5055736;28;20016;-77
2023/08/27 12:00:29;;;;;;;8.43;6.90;;;;;;;;;;5037717;28;20025;-75
2023/08/27 12:02:55;;;;;;;9.30;6.97;;;;;;;;;;5037583;28;20332;-74
2023/08/27 12:05:20;;;;;;;8.63;6.85;;;;;;;;;;5039927;28;20428;-75
2023/08/27 12:07:46;;;;;;;14.25;10.98;;;;;;;;;;5048096;28;20036;-74
2023/08/27 12:10:13;;;;;;;9.95;7.28;;;;;;;;;;5051299;28;20024;-74
2023/08/27 12:12:39;;;;;;;10.77;6.95;;;;;;;;;;5053506;28;20020;-75
2023/08/27 12:15:05;;;;;;;7.63;6.82;;;;;;;;;;5039815;28;20104;-73
2023/08/27 12:17:33;;;;;;;11.52;6.32;;;;;;;;;;5042258;28;20151;-74
2023/08/27 12:19:58;;;;;;;8.60;7.00;;;;;;;;;;5044761;28;20023;-75
2023/08/27 12:22:24;;;;;;;9.05;6.22;;;;;;;;;;5054703;28;20104;-75
2023/08/27 12:24:49;;;;;;;7.93;7.20;;;;;;;;;;5052464;28;20364;-75
2023/08/27 12:27:16;;;;;;;8.57;6.55;;;;;;;;;;5048608;28;20138;-73
2023/08/27 12:29:45;;;;;;;8.73;6.55;;;;;;;;;;5054007;28;20458;-75
2023/08/27 12:32:14;;;;;;;11.00;6.80;;;;;;;;;;5052953;28;20066;-73
2023/08/27 12:34:40;;;;;;;7.22;6.18;;;;;;;;;;5054154;28;20436;-74
2023/08/27 12:37:06;;;;;;;9.48;6.78;;;;;;;;;;5054034;28;20044;-74
2023/08/27 12:39:32;;;;;;;9.95;6.80;;;;;;;;;;5049259;28;20036;-72
2023/08/27 12:41:59;;;;;;;7.70;6.88;;;;;;;;;;5052837;28;20036;-71
2023/08/27 12:44:24;;;;;;;6.93;6.22;;;;;;;;;;5055397;28;20428;-73
2023/08/27 12:46:49;;;;;;;9.43;6.15;;;;;;;;;;5049130;28;20049;-74
2023/08/27 12:49:15;;;;;;;11.30;7.13;;;;;;;;;;5037300;28;20033;-71
2023/08/27 12:51:40;;;;;;;9.75;6.95;;;;;;;;;;5048414;28;20547;-73
2023/08/27 12:54:05;;;;;;;8.63;6.47;;;;;;;;;;5054069;28;20463;-72
2023/08/27 12:56:33;;;;;;;8.40;6.32;;;;;;;;;;5051879;28;20075;-72
2023/08/27 12:58:59;;;;;;;11.77;6.93;;;;;;;;;;5053256;28;20432;-72
2023/08/27 13:01:24;;;;;;;7.43;6.57;;;;;;;;;;5041154;28;20037;-74
2023/08/27 13:03:49;;;;;;;9.55;6.53;;;;;;;;;;5047156;28;20025;-75
2023/08/27 13:06:15;;;;;;;7.65;6.60;;;;;;;;;;5049516;28;20181;-76
2023/08/27 13:08:40;;;;;;;9.93;6.35;;;;;;;;;;5050702;28;20028;-72
2023/08/27 13:11:05;;;;;;;6.45;5.78;;;;;;;;;;5051607;28;20474;-72
2023/08/27 13:13:31;;;;;;;6.32;5.72;;;;;;;;;;5043223;28;20410;-72
2023/08/27 13:15:58;;;;;;;9.15;6.10;;;;;;;;;;5029465;28;20092;-73
2023/08/27 13:18:23;;;;;;;6.18;5.57;;;;;;;;;;5025660;28;20126;-73
2023/08/27 13:20:48;;;;;;;8.23;5.65;;;;;;;;;;5037623;28;20874;-75
2023/08/27 13:23:14;;;;;;;7.72;6.28;;;;;;;;;;5046635;28;20056;-71
2023/08/27 13:25:39;;;;;;;6.40;5.32;;;;;;;;;;5043893;28;20076;-76
2023/08/27 13:28:05;;;;;;;6.97;5.72;;;;;;;;;;5039503;28;20033;-73
2023/08/27 13:30:31;;;;;;;6.53;5.30;;;;;;;;;;5036651;28;20029;-73
2023/08/27 13:33:01;;;;;;;7.68;5.55;;;;;;;;;;5032901;28;20059;-72
2023/08/27 13:35:26;;;;;;;7.97;5.72;;;;;;;;;;5042751;28;20330;-73
2023/08/27 13:37:52;;;;;;;6.47;5.75;;;;;;;;;;5052825;28;20037;-73
2023/08/27 13:40:17;;;;;;;6.70;5.68;;;;;;;;;;5040705;28;20340;-73
2023/08/27 13:42:42;;;;;;;9.93;6.32;;;;;;;;;;5052298;28;20029;-74
2023/08/27 13:45:08;;;;;;;10.65;6.10;;;;;;;;;;5055848;28;20448;-77
2023/08/27 13:47:33;;;;;;;6.28;5.07;;;;;;;;;;5051860;28;20270;-75
2023/08/27 13:49:59;;;;;;;6.50;5.45;;;;;;;;;;5046997;28;20036;-76
2023/08/27 13:52:24;;;;;;;6.93;5.20;;;;;;;;;;5041071;28;20110;-77
2023/08/27 13:54:50;;;;;;;5.28;4.78;;;;;;;;;;5023696;28;20284;-76
2023/08/27 13:57:15;;;;;;;6.45;4.57;;;;;;;;;;5040443;28;20050;-77
2023/08/27 13:59:41;;;;;;;8.57;4.60;;;;;;;;;;5040429;28;20048;-76
2023/08/27 14:02:07;;;;;;;5.80;4.50;;;;;;;;;;5041871;28;20108;-76
2023/08/27 14:04:33;;;;;;;7.80;4.93;;;;;;;;;;5037282;28;20394;-78
2023/08/27 14:06:58;;;;;;;6.30;5.05;;;;;;;;;;5030859;28;20590;-76
2023/08/27 14:09:24;;;;;;;7.18;5.05;;;;;;;;;;5042590;28;20033;-77
2023/08/27 14:11:49;;;;;;;6.47;4.55;;;;;;;;;;5038998;28;20020;-76
2023/08/27 14:14:15;;;;;;;6.32;4.70;;;;;;;;;;5042875;28;20032;-77
2023/08/27 14:16:40;;;;;;;8.23;5.13;;;;;;;;;;5044394;28;20387;-77
2023/08/27 14:19:05;;;;;;;5.03;4.53;;;;;;;;;;5031016;28;20407;-76
2023/08/27 14:21:31;;;;;;;8.10;4.63;;;;;;;;;;5027977;28;20039;-76